Addison, New York
Current Conditions -  °F | °C
As of 7:53 AM on Friday 28 Nov 2014 (Local Time) from KELM Reporting Station
Clear Clear  
Wind Chill: 16°   Ceiling: Unl
Heat Index: 24°   Visibility: 10mi
Dew Point: 13°   Wind: 7mph
Humidity: 62%   Direction: 230°SW
Pressure: 30.21"   Gusts: NA
Location:  42.1°N, 77.23°W
Report Text: KELM 281253Z 23006KT 10SM CLR M04/M11 A3021 RMK AO2 SLP244 T10441106
Loading
Personal Weather Stations






























Interactive Weather Map New forecast layout! Learn more

10-Day Weather Forecast

Advertisements
Track Severe Weather on mobile